Time;durP1;ratioP1;P1;durP2;ratioP2;P2;SDS_P1;SDS_P2;PMS_P1;PMS_P2;Temp;Humidity;BMP_temperature;BMP_pressure;BME280_temperature;BME280_humidity;BME280_pressure;Samples;Min_cycle;Max_cycle;Signal;HPM_P1;HPM_P2
2023/11/06 00:01:35;;;;;;;0.40;0.40;;;;;;;9.40;79.53;94597.70;108548;1275;27158;-72
2023/11/06 00:04:06;;;;;;;0.60;0.30;;;;;;;9.40;79.53;94604.70;108621;1252;22541;-73
2023/11/06 00:06:37;;;;;;;0.20;0.20;;;;;;;9.41;79.42;94618.94;108580;1272;25374;-73
2023/11/06 00:09:08;;;;;;;0.30;0.30;;;;;;;9.41;79.40;94634.31;108586;1275;22541;-73
2023/11/06 00:11:40;;;;;;;0.70;0.50;;;;;;;9.40;79.44;94637.36;108584;1274;22525;-72
2023/11/06 00:14:11;;;;;;;0.40;0.30;;;;;;;9.44;79.42;94641.81;108646;1269;22527;-73
2023/11/06 00:16:43;;;;;;;0.50;0.30;;;;;;;9.48;79.22;94648.88;108635;1275;22519;-72
2023/11/06 00:19:15;;;;;;;0.30;0.20;;;;;;;9.52;79.13;94658.39;108583;1269;22533;-73
2023/11/06 00:21:46;;;;;;;0.40;0.30;;;;;;;9.56;78.93;94661.38;108572;1275;22518;-73
2023/11/06 00:24:17;;;;;;;1.00;0.50;;;;;;;9.57;78.87;94662.75;108551;1272;22524;-73
2023/11/06 00:26:48;;;;;;;0.20;0.20;;;;;;;9.59;78.79;94671.29;108606;1275;22550;-73
2023/11/06 00:29:19;;;;;;;1.00;0.30;;;;;;;9.60;78.72;94676.63;108581;1275;22560;-73
2023/11/06 00:31:53;;;;;;;0.30;0.20;;;;;;;9.68;78.44;94681.83;108568;1275;22576;-73
2023/11/06 00:34:23;;;;;;;0.40;0.30;;;;;;;9.72;78.26;94694.77;108604;1269;25387;-73
2023/11/06 00:36:54;;;;;;;0.60;0.40;;;;;;;9.73;78.19;94701.15;108606;1269;22970;-73
2023/11/06 00:39:25;;;;;;;0.30;0.30;;;;;;;9.81;78.03;94712.55;108591;1272;22511;-73
2023/11/06 00:41:56;;;;;;;1.40;0.40;;;;;;;9.83;77.81;94719.55;108581;1275;29459;-73
2023/11/06 00:44:27;;;;;;;0.60;0.40;;;;;;;9.86;77.77;94728.20;108600;1275;22524;-73
2023/11/06 00:46:58;;;;;;;0.30;0.30;;;;;;;9.91;77.48;94727.87;108605;1272;22545;-72
2023/11/06 00:49:29;;;;;;;0.80;0.40;;;;;;;9.97;77.27;94740.56;108582;1274;26589;-72
2023/11/06 00:52:00;;;;;;;0.20;0.20;;;;;;;9.95;77.40;94732.54;108576;1275;22535;-73
2023/11/06 00:54:31;;;;;;;1.80;0.40;;;;;;;9.90;77.56;94738.27;108618;1275;22565;-73
2023/11/06 00:57:03;;;;;;;0.50;0.40;;;;;;;9.89;77.84;94747.21;108579;1268;22749;-73
2023/11/06 00:59:34;;;;;;;1.00;0.30;;;;;;;9.88;78.07;94753.23;108612;1269;22576;-72
2023/11/06 01:02:05;;;;;;;0.40;0.40;;;;;;;9.86;78.25;94748.54;108538;1275;22545;-73
2023/11/06 01:04:36;;;;;;;0.10;0.10;;;;;;;9.82;78.62;94755.85;108594;1275;22522;-73
2023/11/06 01:07:07;;;;;;;0.60;0.40;;;;;;;9.78;79.12;94766.30;108560;1275;22530;-73
2023/11/06 01:09:38;;;;;;;0.30;0.20;;;;;;;9.82;79.54;94774.45;108548;1275;22532;-73
2023/11/06 01:12:10;;;;;;;0.40;0.30;;;;;;;9.79;79.85;94776.61;108567;1275;22576;-73
2023/11/06 01:14:41;;;;;;;0.40;0.30;;;;;;;9.75;80.08;94775.92;108608;1275;24267;-73
2023/11/06 01:17:12;;;;;;;0.70;0.40;;;;;;;9.75;80.53;94777.81;108582;1275;23294;-73
2023/11/06 01:19:43;;;;;;;0.50;0.30;;;;;;;9.81;80.48;94783.48;108622;1275;24373;-73
2023/11/06 01:22:13;;;;;;;0.80;0.20;;;;;;;9.79;80.55;94787.51;108573;1273;22537;-73
2023/11/06 01:24:44;;;;;;;0.80;0.50;;;;;;;9.76;80.82;94792.91;108579;1268;22531;-73
2023/11/06 01:27:15;;;;;;;0.30;0.20;;;;;;;9.78;80.89;94802.67;108612;1275;22528;-73
2023/11/06 01:29:46;;;;;;;0.40;0.20;;;;;;;9.77;80.86;94807.29;108569;1275;23275;-73
2023/11/06 01:32:20;;;;;;;0.40;0.20;;;;;;;9.74;81.21;94809.08;108566;1275;22830;-73
2023/11/06 01:34:51;;;;;;;0.30;0.30;;;;;;;9.71;81.31;94808.36;108596;1275;22524;-73
2023/11/06 01:37:22;;;;;;;0.60;0.40;;;;;;;9.63;81.50;94807.73;108604;1272;24277;-73
2023/11/06 01:39:53;;;;;;;0.30;0.20;;;;;;;9.56;82.19;94804.61;108582;1267;24245;-73
2023/11/06 01:42:23;;;;;;;1.00;0.40;;;;;;;9.54;82.62;94819.89;108614;1275;22542;-73
2023/11/06 01:44:54;;;;;;;0.70;0.70;;;;;;;9.50;82.86;94825.77;108613;1274;22524;-72
2023/11/06 01:47:25;;;;;;;1.30;0.20;;;;;;;9.45;83.18;94830.19;108640;1269;24857;-73
2023/11/06 01:49:59;;;;;;;1.00;0.50;;;;;;;9.43;83.67;94833.52;108581;1275;23283;-72
2023/11/06 01:52:31;;;;;;;0.20;0.20;;;;;;;9.43;83.83;94844.75;108578;1275;22527;-73
2023/11/06 01:55:02;;;;;;;0.60;0.40;;;;;;;9.42;83.89;94853.39;108578;1272;22532;-73
2023/11/06 01:57:33;;;;;;;0.70;0.30;;;;;;;9.41;83.93;94861.66;108600;1275;25223;-73
2023/11/06 02:00:06;;;;;;;0.20;0.20;;;;;;;9.44;84.00;94864.38;108573;1275;22527;-73
2023/11/06 02:02:37;;;;;;;0.60;0.60;;;;;;;9.49;83.85;94869.27;108573;1271;25243;-73
2023/11/06 02:05:10;;;;;;;0.30;0.10;;;;;;;9.53;83.83;94865.14;108555;1267;22528;-73
2023/11/06 02:07:42;;;;;;;1.60;0.40;;;;;;;9.54;83.56;94872.88;108588;1269;22634;-73
2023/11/06 02:10:16;;;;;;;0.20;0.20;;;;;;;9.56;83.52;94883.74;108649;1275;22530;-73
2023/11/06 02:12:47;;;;;;;0.20;0.10;;;;;;;9.58;83.29;94885.60;108614;1275;22534;-73
2023/11/06 02:15:18;;;;;;;0.40;0.30;;;;;;;9.68;82.76;94895.84;108630;1275;22517;-73
2023/11/06 02:17:49;;;;;;;0.30;0.10;;;;;;;9.70;82.52;94899.20;108585;1271;22517;-73
2023/11/06 02:20:20;;;;;;;0.60;0.30;;;;;;;9.69;82.29;94901.16;108568;1269;24770;-73
2023/11/06 02:22:53;;;;;;;0.30;0.20;;;;;;;9.67;82.24;94904.49;108550;1267;22550;-73
2023/11/06 02:25:24;;;;;;;0.40;0.20;;;;;;;9.67;81.99;94902.01;108604;1275;22518;-73
2023/11/06 02:27:55;;;;;;;0.40;0.30;;;;;;;9.69;81.50;94907.07;108579;1275;22653;-73
2023/11/06 02:30:26;;;;;;;0.30;0.20;;;;;;;9.67;81.03;94916.08;108579;1275;22510;-72
2023/11/06 02:32:57;;;;;;;0.30;0.10;;;;;;;9.71;80.52;94915.60;108574;1272;22529;-73
2023/11/06 02:35:28;;;;;;;0.20;0.20;;;;;;;9.71;80.00;94923.57;108591;1275;25329;-73
2023/11/06 02:37:58;;;;;;;0.30;0.30;;;;;;;9.73;79.52;94932.67;108537;1275;22528;-74
2023/11/06 02:40:29;;;;;;;0.70;0.20;;;;;;;9.74;79.10;94939.67;108556;1275;23349;-73
2023/11/06 02:43:00;;;;;;;0.20;0.10;;;;;;;9.77;78.10;94943.25;108579;1275;25495;-72
2023/11/06 02:45:31;;;;;;;0.30;0.20;;;;;;;9.80;77.41;94948.68;108551;1272;22552;-73
2023/11/06 02:48:02;;;;;;;0.20;0.20;;;;;;;9.85;76.49;94955.31;108566;1270;22550;-73
2023/11/06 02:50:33;;;;;;;0.60;0.40;;;;;;;9.88;76.48;94959.15;108530;1275;26436;-72
2023/11/06 02:53:04;;;;;;;0.50;0.20;;;;;;;9.88;76.16;94963.08;108564;1275;22522;-73
2023/11/06 02:55:36;;;;;;;0.70;0.10;;;;;;;9.94;75.13;94967.86;108604;1274;24206;-73
2023/11/06 02:58:07;;;;;;;0.10;0.10;;;;;;;9.98;74.46;94972.32;108607;1275;22537;-73
2023/11/06 03:00:39;;;;;;;0.30;0.20;;;;;;;9.98;74.08;94975.54;108538;1272;22524;-72
2023/11/06 03:03:10;;;;;;;0.10;0.10;;;;;;;9.95;73.79;94985.66;108577;1275;22518;-73
2023/11/06 03:05:41;;;;;;;0.20;0.20;;;;;;;9.95;73.47;94999.80;108604;1275;22592;-73
2023/11/06 03:08:11;;;;;;;0.40;0.10;;;;;;;9.96;73.39;95004.53;108584;1267;24392;-74
2023/11/06 03:10:42;;;;;;;0.50;0.20;;;;;;;9.95;72.97;95008.45;108554;1275;33882;-73
2023/11/06 03:13:13;;;;;;;0.20;0.20;;;;;;;9.98;72.86;95023.30;108580;1275;22556;-73
2023/11/06 03:15:44;;;;;;;0.80;0.20;;;;;;;9.99;72.24;95025.87;108597;1275;22528;-73
2023/11/06 03:18:15;;;;;;;0.20;0.20;;;;;;;10.01;71.90;95023.63;108577;1254;22530;-73
2023/11/06 03:20:46;;;;;;;0.40;0.20;;;;;;;9.99;71.81;95024.17;108542;1271;24717;-73
2023/11/06 03:23:17;;;;;;;2.70;0.20;;;;;;;9.96;71.56;95027.27;108628;1275;22547;-73
2023/11/06 03:25:48;;;;;;;0.50;0.10;;;;;;;9.93;71.63;95045.12;108600;1275;23624;-73
2023/11/06 03:28:18;;;;;;;0.30;0.20;;;;;;;9.89;71.37;95041.70;108562;1275;22573;-73
2023/11/06 03:30:49;;;;;;;0.10;0.10;;;;;;;9.89;71.03;95053.65;108591;1267;22506;-73
2023/11/06 03:33:20;;;;;;;0.10;0.10;;;;;;;9.84;70.75;95051.79;108606;1275;22575;-73
2023/11/06 03:35:51;;;;;;;0.10;0.10;;;;;;;9.82;70.13;95052.20;108579;1269;22524;-73
2023/11/06 03:38:22;;;;;;;0.40;0.30;;;;;;;9.82;69.82;95057.29;108601;1275;25056;-72
2023/11/06 03:40:53;;;;;;;0.30;0.30;;;;;;;9.79;69.98;95056.29;108552;1274;22525;-73
2023/11/06 03:43:24;;;;;;;0.90;0.30;;;;;;;9.75;69.54;95053.40;108603;1275;24200;-73
2023/11/06 03:45:55;;;;;;;0.10;0.10;;;;;;;9.74;69.61;95069.03;108615;1275;22534;-72
2023/11/06 03:48:26;;;;;;;1.10;0.20;;;;;;;9.72;69.62;95079.90;108561;1268;22522;-73
2023/11/06 03:50:57;;;;;;;0.10;0.10;;;;;;;9.74;69.58;95084.50;108589;1275;24939;-73
2023/11/06 03:53:28;;;;;;;0.40;0.30;;;;;;;9.76;69.48;95090.95;108586;1275;22634;-73
2023/11/06 03:55:58;;;;;;;0.20;0.20;;;;;;;9.81;69.25;95092.99;108599;1275;22522;-73
2023/11/06 03:58:29;;;;;;;0.80;0.00;;;;;;;9.83;69.00;95095.64;108572;1275;24269;-73
2023/11/06 04:01:00;;;;;;;1.70;0.30;;;;;;;9.83;68.95;95101.93;108572;1275;22520;-73
2023/11/06 04:03:31;;;;;;;1.20;0.10;;;;;;;9.83;68.79;95093.31;108626;1274;22514;-73
2023/11/06 04:06:03;;;;;;;0.40;0.20;;;;;;;9.82;68.75;95115.73;108641;1275;22562;-73
2023/11/06 04:08:34;;;;;;;1.50;0.30;;;;;;;9.80;68.61;95116.98;108567;1275;22549;-73
2023/11/06 04:11:05;;;;;;;0.90;0.30;;;;;;;9.81;68.20;95121.37;108574;1265;22512;-73
2023/11/06 04:13:36;;;;;;;0.90;0.30;;;;;;;9.83;68.33;95132.27;108633;1275;22639;-73
2023/11/06 04:16:09;;;;;;;0.30;0.10;;;;;;;9.82;68.20;95128.73;108608;1272;22518;-73
2023/11/06 04:18:40;;;;;;;0.30;0.20;;;;;;;9.78;68.23;95134.75;108613;1271;22534;-73
2023/11/06 04:21:11;;;;;;;0.20;0.10;;;;;;;9.76;68.06;95140.91;108592;1275;22636;-73
2023/11/06 04:23:41;;;;;;;0.10;0.10;;;;;;;9.71;68.01;95137.60;108582;1275;22550;-73
2023/11/06 04:26:12;;;;;;;0.80;0.30;;;;;;;9.64;67.23;95142.10;108594;1272;25400;-73
2023/11/06 04:28:43;;;;;;;1.20;0.30;;;;;;;9.59;66.76;95155.10;108586;1275;25348;-73
2023/11/06 04:31:14;;;;;;;0.40;0.20;;;;;;;9.51;66.41;95148.04;108584;1275;22527;-73
2023/11/06 04:33:45;;;;;;;0.70;0.30;;;;;;;9.45;66.48;95162.81;108587;1271;22539;-73
2023/11/06 04:36:18;;;;;;;0.40;0.30;;;;;;;9.44;66.37;95159.35;108595;1270;22526;-73
2023/11/06 04:38:50;;;;;;;0.90;0.40;;;;;;;9.40;66.34;95168.06;108597;1275;24453;-73
2023/11/06 04:41:22;;;;;;;0.40;0.30;;;;;;;9.37;66.34;95178.52;108583;1275;22529;-72
2023/11/06 04:43:53;;;;;;;0.70;0.40;;;;;;;9.34;66.28;95179.72;108546;1275;22531;-73
2023/11/06 04:46:24;;;;;;;0.80;0.20;;;;;;;9.31;66.29;95187.18;108549;1272;22543;-73
2023/11/06 04:48:55;;;;;;;0.50;0.40;;;;;;;9.29;66.06;95192.51;108603;1265;25319;-73
2023/11/06 04:51:25;;;;;;;0.40;0.20;;;;;;;9.29;65.49;95190.98;108572;1269;22594;-73
2023/11/06 04:53:56;;;;;;;1.00;0.20;;;;;;;9.29;65.52;95194.09;108624;1272;22523;-73
2023/11/06 04:56:27;;;;;;;1.10;0.30;;;;;;;9.23;65.75;95202.27;108569;1275;22530;-73
2023/11/06 04:58:58;;;;;;;0.70;0.30;;;;;;;9.16;65.75;95209.06;108581;1272;25419;-73
2023/11/06 05:01:28;;;;;;;1.00;0.20;;;;;;;9.12;65.51;95199.94;108537;1275;22650;-72
2023/11/06 05:03:59;;;;;;;1.30;0.50;;;;;;;9.11;65.17;95208.12;108561;1275;22515;-73
2023/11/06 05:06:30;;;;;;;0.70;0.30;;;;;;;9.10;64.93;95212.38;108564;1275;23041;-73
2023/11/06 05:09:01;;;;;;;5.90;0.60;;;;;;;9.12;64.34;95202.77;108586;1275;24215;-73
2023/11/06 05:11:33;;;;;;;0.30;0.30;;;;;;;9.14;64.26;95204.73;108626;1275;22838;-73
2023/11/06 05:14:03;;;;;;;0.80;0.50;;;;;;;9.07;64.41;95217.05;108568;1275;22536;-72
2023/11/06 05:16:36;;;;;;;1.70;0.30;;;;;;;9.07;64.10;95211.83;108602;1253;22545;-73
2023/11/06 05:19:08;;;;;;;0.20;0.20;;;;;;;9.03;64.30;95218.49;108571;1271;22604;-73
2023/11/06 05:21:38;;;;;;;0.70;0.30;;;;;;;9.00;64.32;95214.11;108555;1275;22531;-73
2023/11/06 05:24:10;;;;;;;1.00;0.40;;;;;;;8.98;64.18;95227.63;108599;1275;22559;-72
2023/11/06 05:26:40;;;;;;;0.40;0.30;;;;;;;8.99;64.04;95226.82;108544;1275;25348;-73
2023/11/06 05:29:11;;;;;;;1.10;0.40;;;;;;;9.01;63.92;95226.88;108556;1275;22697;-73
2023/11/06 05:31:43;;;;;;;0.40;0.30;;;;;;;9.04;63.57;95228.24;108603;1272;22526;-73
2023/11/06 05:34:14;;;;;;;0.80;0.30;;;;;;;9.05;63.43;95241.71;108639;1269;22531;-73
2023/11/06 05:36:45;;;;;;;1.00;0.40;;;;;;;9.04;63.71;95251.41;108597;1269;22550;-72
2023/11/06 05:39:16;;;;;;;2.80;0.40;;;;;;;9.02;63.54;95246.63;108573;1275;22541;-72
2023/11/06 05:41:49;;;;;;;0.60;0.30;;;;;;;9.03;63.59;95233.02;108544;1272;28348;-73
2023/11/06 05:44:20;;;;;;;0.40;0.20;;;;;;;9.03;63.49;95255.23;108588;1275;22556;-73
2023/11/06 05:46:50;;;;;;;0.50;0.20;;;;;;;9.05;63.42;95264.85;108579;1272;25020;-73
2023/11/06 05:49:21;;;;;;;0.80;0.20;;;;;;;9.01;63.50;95270.92;108583;1272;22546;-73
2023/11/06 05:51:53;;;;;;;1.00;0.30;;;;;;;8.99;63.57;95276.39;108579;1275;24199;-73
2023/11/06 05:54:24;;;;;;;0.80;0.40;;;;;;;9.02;63.56;95283.58;108602;1275;22532;-73
2023/11/06 05:56:58;;;;;;;0.60;0.20;;;;;;;9.19;63.37;95285.41;108583;1275;22540;-73
2023/11/06 05:59:29;;;;;;;0.40;0.30;;;;;;;9.38;62.91;95291.56;108622;1275;22552;-73
2023/11/06 06:01:59;;;;;;;0.80;0.30;;;;;;;9.53;62.22;95294.60;108504;1275;22531;-73
2023/11/06 06:04:31;;;;;;;0.40;0.40;;;;;;;9.70;61.71;95286.52;108608;1275;22529;-73
2023/11/06 06:07:02;;;;;;;0.90;0.40;;;;;;;9.83;61.08;95295.96;108592;1275;22533;-72
2023/11/06 06:09:33;;;;;;;0.90;0.30;;;;;;;9.94;61.03;95310.20;108577;1275;22520;-73
2023/11/06 06:12:05;;;;;;;1.10;0.50;;;;;;;10.02;60.41;95310.69;108586;1275;22529;-73
2023/11/06 06:14:36;;;;;;;0.60;0.20;;;;;;;10.11;60.07;95324.39;108619;1275;22525;-73
2023/11/06 06:17:07;;;;;;;0.40;0.40;;;;;;;10.25;59.63;95324.36;108581;1275;22524;-73
2023/11/06 06:19:38;;;;;;;0.30;0.20;;;;;;;10.37;58.44;95308.11;108612;1272;22667;-74
2023/11/06 06:22:09;;;;;;;0.90;0.20;;;;;;;10.49;58.06;95313.35;108564;1270;24916;-74
2023/11/06 06:24:42;;;;;;;0.20;0.20;;;;;;;10.58;57.56;95313.98;108587;1269;22527;-74
2023/11/06 06:27:13;;;;;;;0.80;0.40;;;;;;;10.69;57.78;95333.92;108603;1275;22534;-73
2023/11/06 06:29:45;;;;;;;1.90;0.20;;;;;;;10.82;57.46;95334.72;108590;1275;24392;-74
2023/11/06 06:32:16;;;;;;;1.20;0.50;;;;;;;10.89;56.83;95330.64;108582;1275;24272;-74
2023/11/06 06:34:47;;;;;;;0.80;0.40;;;;;;;10.90;56.66;95341.02;108575;1275;25258;-74
2023/11/06 06:37:18;;;;;;;1.20;0.30;;;;;;;11.01;57.16;95352.39;108586;1272;24367;-74
2023/11/06 06:39:50;;;;;;;1.10;0.20;;;;;;;11.26;57.40;95359.11;108575;1272;22527;-74
2023/11/06 06:42:20;;;;;;;0.80;0.30;;;;;;;11.45;56.47;95364.33;108516;1275;27612;-74
2023/11/06 06:44:51;;;;;;;0.30;0.20;;;;;;;11.52;56.27;95372.73;108578;1269;22531;-74
2023/11/06 06:47:22;;;;;;;0.90;0.50;;;;;;;11.67;56.27;95384.63;108611;1275;25413;-74
2023/11/06 06:49:54;;;;;;;1.00;0.40;;;;;;;11.89;56.02;95390.05;108544;1275;22543;-74
2023/11/06 06:52:25;;;;;;;0.40;0.30;;;;;;;12.10;56.08;95397.06;108625;1275;25318;-74
2023/11/06 06:54:56;;;;;;;1.30;0.30;;;;;;;12.26;55.26;95403.34;108590;1275;22693;-74
2023/11/06 06:57:27;;;;;;;1.20;0.50;;;;;;;12.17;54.40;95405.55;108617;1275;22550;-75
2023/11/06 06:59:58;;;;;;;1.70;0.30;;;;;;;12.15;54.27;95409.21;108564;1275;22553;-74
2023/11/06 07:02:28;;;;;;;0.90;0.20;;;;;;;12.22;54.16;95406.59;108554;1275;23348;-73
2023/11/06 07:04:59;;;;;;;1.40;0.50;;;;;;;12.38;54.76;95419.48;108595;1275;23035;-74
2023/11/06 07:07:30;;;;;;;1.20;0.50;;;;;;;12.84;54.91;95418.15;108613;1275;25258;-74
2023/11/06 07:10:01;;;;;;;1.20;0.40;;;;;;;13.04;54.06;95423.45;108583;1271;22656;-74
2023/11/06 07:12:32;;;;;;;1.50;0.50;;;;;;;13.44;54.35;95432.04;108543;1274;25157;-74
2023/11/06 07:15:03;;;;;;;1.60;0.30;;;;;;;13.53;53.55;95434.05;108635;1275;25288;-74
2023/11/06 07:17:35;;;;;;;0.80;0.40;;;;;;;12.96;52.99;95434.20;108628;1272;22525;-74
2023/11/06 07:20:08;;;;;;;2.20;0.50;;;;;;;11.94;53.59;95437.61;108579;1275;22554;-73
2023/11/06 07:22:39;;;;;;;1.80;0.50;;;;;;;11.43;54.88;95444.02;108615;1270;22522;-73
2023/11/06 07:25:10;;;;;;;0.70;0.10;;;;;;;11.13;55.76;95445.24;108608;1273;24183;-73
2023/11/06 07:27:42;;;;;;;4.00;1.30;;;;;;;10.87;56.27;95445.71;108626;1275;22522;-73
2023/11/06 07:30:14;;;;;;;1.50;0.70;;;;;;;10.66;56.97;95443.69;108578;1269;24312;-74
2023/11/06 07:32:45;;;;;;;2.20;0.60;;;;;;;10.54;57.60;95447.61;108587;1275;22527;-73
2023/11/06 07:35:16;;;;;;;1.30;0.40;;;;;;;10.48;58.01;95446.73;108573;1275;22643;-73
2023/11/06 07:37:47;;;;;;;1.30;0.60;;;;;;;10.30;58.37;95451.56;108576;1275;22528;-73
2023/11/06 07:40:18;;;;;;;2.50;0.70;;;;;;;10.21;58.98;95450.05;108618;1275;25246;-73
2023/11/06 07:42:49;;;;;;;2.30;0.70;;;;;;;10.26;59.35;95452.32;108580;1272;22635;-73
2023/11/06 07:45:20;;;;;;;1.80;0.60;;;;;;;10.36;59.89;95459.37;108622;1275;22535;-73
2023/11/06 07:47:51;;;;;;;2.00;0.90;;;;;;;10.73;60.28;95462.69;108589;1270;22527;-73
2023/11/06 07:50:22;;;;;;;0.90;0.50;;;;;;;11.24;60.18;95464.02;108569;1275;24142;-74
2023/11/06 07:52:55;;;;;;;2.60;0.60;;;;;;;11.96;59.74;95465.02;108634;1275;22550;-73
2023/11/06 07:55:26;;;;;;;1.80;0.60;;;;;;;12.26;58.66;95462.03;108640;1269;22531;-73
2023/11/06 07:58:01;;;;;;;1.50;0.60;;;;;;;12.83;58.30;95476.20;108741;1272;22525;-73
2023/11/06 08:00:33;;;;;;;0.90;0.60;;;;;;;13.52;57.93;95476.38;108666;1275;22522;-73
2023/11/06 08:03:06;;;;;;;2.10;0.50;;;;;;;13.06;56.21;95474.82;108698;1275;22536;-73
2023/11/06 08:05:41;;;;;;;1.40;0.40;;;;;;;12.34;56.09;95472.70;108703;1273;22589;-73
2023/11/06 08:08:12;;;;;;;1.40;0.40;;;;;;;11.63;56.84;95476.45;108679;1275;23686;-73
2023/11/06 08:10:43;;;;;;;1.40;0.50;;;;;;;11.13;57.82;95485.27;108679;1273;23487;-72
2023/11/06 08:13:14;;;;;;;1.20;0.60;;;;;;;10.96;58.99;95495.62;108644;1272;25288;-73
2023/11/06 08:15:45;;;;;;;1.40;0.50;;;;;;;10.89;59.63;95501.48;108659;1275;22521;-74
2023/11/06 08:18:16;;;;;;;1.50;0.70;;;;;;;10.77;60.00;95490.05;108625;1275;25428;-73
2023/11/06 08:20:47;;;;;;;1.90;0.90;;;;;;;10.58;60.53;95511.27;108574;1275;22527;-72
2023/11/06 08:23:17;;;;;;;3.60;0.80;;;;;;;10.56;61.12;95508.25;108601;1275;25242;-72
2023/11/06 08:25:48;;;;;;;2.00;0.50;;;;;;;10.53;61.48;95512.70;108650;1275;22651;-73
2023/11/06 08:28:20;;;;;;;1.40;0.50;;;;;;;10.49;61.89;95513.35;108584;1271;22534;-73
2023/11/06 08:30:52;;;;;;;1.00;0.40;;;;;;;10.53;62.22;95514.09;108598;1267;22528;-72
2023/11/06 08:33:23;;;;;;;0.90;0.50;;;;;;;10.67;62.66;95523.70;108603;1275;23028;-73
2023/11/06 08:35:54;;;;;;;2.30;0.70;;;;;;;10.97;63.07;95533.03;108598;1275;23206;-73
2023/11/06 08:38:24;;;;;;;1.30;0.40;;;;;;;11.39;63.42;95540.95;108569;1275;24193;-73
2023/11/06 08:40:56;;;;;;;2.70;0.50;;;;;;;12.00;62.86;95538.86;108563;1275;24333;-73
2023/11/06 08:43:27;;;;;;;0.80;0.60;;;;;;;11.87;60.99;95545.73;108593;1275;25337;-72
2023/11/06 08:46:00;;;;;;;1.60;0.30;;;;;;;11.46;60.77;95550.77;108593;1275;22708;-73
2023/11/06 08:48:31;;;;;;;1.30;0.50;;;;;;;11.14;61.18;95558.67;108594;1275;24281;-73
2023/11/06 08:51:02;;;;;;;0.80;0.40;;;;;;;10.91;61.88;95559.62;108600;1275;22526;-73
2023/11/06 08:53:33;;;;;;;2.10;0.60;;;;;;;10.76;62.26;95567.54;108568;1275;25079;-73
2023/11/06 08:56:05;;;;;;;1.20;0.40;;;;;;;10.63;62.58;95570.67;108599;1274;22554;-72
2023/11/06 08:58:37;;;;;;;0.30;0.20;;;;;;;10.53;62.77;95575.63;108605;1275;22535;-73
2023/11/06 09:01:11;;;;;;;1.80;0.40;;;;;;;10.52;62.97;95583.23;108573;1275;24505;-72
2023/11/06 09:03:41;;;;;;;0.80;0.20;;;;;;;10.62;63.38;95585.95;108624;1274;22629;-72
2023/11/06 09:06:22;;;;;;;0.30;0.10;;;;;;;10.73;62.50;95585.85;108589;1275;22524;-72
2023/11/06 09:08:53;;;;;;;0.80;0.20;;;;;;;10.95;62.12;95589.52;108581;1275;24255;-73
2023/11/06 09:11:24;;;;;;;0.20;0.10;;;;;;;11.29;61.13;95592.21;108595;1275;22524;-73
2023/11/06 09:13:55;;;;;;;0.60;0.30;;;;;;;11.53;60.49;95600.10;108630;1275;22658;-73
2023/11/06 09:16:30;;;;;;;0.90;0.30;;;;;;;11.73;60.03;95595.88;108590;1275;22516;-73
2023/11/06 09:19:01;;;;;;;0.40;0.20;;;;;;;11.76;59.57;95604.77;108613;1275;22531;-73
2023/11/06 09:21:32;;;;;;;0.30;0.20;;;;;;;11.88;59.39;95604.51;108572;1257;22535;-73
2023/11/06 09:24:04;;;;;;;0.40;0.10;;;;;;;12.05;58.13;95603.31;108628;1275;22553;-73
2023/11/06 09:26:35;;;;;;;1.60;0.60;;;;;;;12.09;57.45;95613.05;108581;1275;22993;-73
2023/11/06 09:29:06;;;;;;;1.70;0.30;;;;;;;12.15;57.66;95614.69;108589;1275;22522;-73
2023/11/06 09:31:37;;;;;;;1.10;0.40;;;;;;;12.13;56.72;95613.38;108578;1273;23505;-73
2023/11/06 09:34:08;;;;;;;0.40;0.20;;;;;;;12.03;56.67;95622.91;108589;1273;22541;-73
2023/11/06 09:36:39;;;;;;;1.50;0.40;;;;;;;11.96;56.64;95625.20;108580;1275;25330;-73
2023/11/06 09:39:10;;;;;;;0.40;0.20;;;;;;;11.96;56.84;95627.27;108588;1269;24391;-73
2023/11/06 09:41:41;;;;;;;0.60;0.20;;;;;;;12.05;56.54;95631.84;108532;1273;22535;-73
2023/11/06 09:44:14;;;;;;;1.10;0.40;;;;;;;12.08;56.83;95631.09;108610;1267;22524;-74
2023/11/06 09:46:45;;;;;;;0.60;0.20;;;;;;;12.29;56.76;95636.96;108594;1275;22555;-73
2023/11/06 09:49:26;;;;;;;1.20;0.50;;;;;;;12.41;55.84;95631.13;108541;1275;22601;-73
2023/11/06 09:51:58;;;;;;;1.80;0.60;;;;;;;12.50;55.50;95636.16;108571;1275;22527;-74
2023/11/06 09:54:32;;;;;;;1.40;0.20;;;;;;;12.51;55.20;95639.42;108606;1267;25271;-74
2023/11/06 09:57:04;;;;;;;1.00;0.20;;;;;;;12.54;54.42;95652.06;108623;1275;22531;-73
2023/11/06 09:59:36;;;;;;;2.70;0.40;;;;;;;12.68;55.47;95652.92;108584;1269;22528;-73
2023/11/06 10:02:08;;;;;;;0.50;0.30;;;;;;;12.90;55.67;95660.20;108574;1267;22576;-73
2023/11/06 10:04:39;;;;;;;0.40;0.30;;;;;;;13.06;55.02;95653.23;108616;1273;22524;-73
2023/11/06 10:07:10;;;;;;;0.40;0.30;;;;;;;13.02;54.47;95665.86;108576;1275;25338;-73
2023/11/06 10:09:41;;;;;;;1.00;0.30;;;;;;;12.87;54.03;95671.36;108587;1275;22527;-73
2023/11/06 10:12:19;;;;;;;1.80;0.30;;;;;;;12.66;54.24;95669.32;108593;1273;22551;-73
2023/11/06 10:14:50;;;;;;;0.50;0.30;;;;;;;12.46;54.41;95676.83;108628;1275;22522;-73
2023/11/06 10:17:25;;;;;;;0.90;0.30;;;;;;;12.36;54.75;95675.97;108628;1270;25338;-74
2023/11/06 10:20:06;;;;;;;0.70;0.40;;;;;;;12.29;54.09;95683.04;108590;1275;22529;-73
2023/11/06 10:22:37;;;;;;;1.00;0.50;;;;;;;12.07;54.21;95692.35;108588;1275;31062;-73
2023/11/06 10:25:11;;;;;;;2.60;0.60;;;;;;;12.03;54.90;95685.44;108613;1274;22516;-73
2023/11/06 10:27:42;;;;;;;0.50;0.30;;;;;;;12.05;54.88;95690.13;108586;1275;22535;-74
2023/11/06 10:30:14;;;;;;;0.20;0.20;;;;;;;11.88;55.15;95688.30;108600;1275;22937;-75
2023/11/06 10:32:45;;;;;;;1.20;0.60;;;;;;;11.73;55.45;95691.20;108573;1267;22602;-74
2023/11/06 10:35:17;;;;;;;1.30;0.40;;;;;;;11.61;55.63;95692.53;108576;1275;25341;-73
2023/11/06 10:37:48;;;;;;;1.60;0.40;;;;;;;11.52;55.72;95704.66;108602;1275;22568;-73
2023/11/06 10:40:21;;;;;;;2.10;0.40;;;;;;;11.49;55.87;95700.23;108602;1275;22527;-74
2023/11/06 10:42:53;;;;;;;0.70;0.40;;;;;;;11.43;56.04;95698.55;108616;1267;22535;-73
2023/11/06 10:45:26;;;;;;;0.90;0.40;;;;;;;11.29;55.82;95702.13;108592;1275;22540;-73
2023/11/06 10:48:10;;;;;;;0.50;0.30;;;;;;;11.19;56.41;95707.54;108565;1267;22543;-73
2023/11/06 10:50:43;;;;;;;0.50;0.20;;;;;;;11.19;57.05;95713.52;108590;1275;22523;-73
2023/11/06 10:53:15;;;;;;;4.20;0.40;;;;;;;11.25;56.74;95714.09;108617;1275;25426;-73
2023/11/06 10:55:50;;;;;;;0.30;0.20;;;;;;;11.18;56.55;95717.67;108583;1275;22547;-73
2023/11/06 10:58:24;;;;;;;1.80;0.30;;;;;;;11.13;56.71;95723.44;108572;1275;22564;-72
2023/11/06 11:00:56;;;;;;;2.40;0.40;;;;;;;11.11;57.10;95731.70;108585;1275;22624;-73
2023/11/06 11:03:29;;;;;;;1.00;0.40;;;;;;;11.09;57.32;95731.05;108590;1275;22525;-73
2023/11/06 11:06:02;;;;;;;1.20;0.20;;;;;;;11.08;57.38;95729.71;108714;1275;22574;-74
2023/11/06 11:08:35;;;;;;;1.70;0.30;;;;;;;11.05;57.19;95728.77;108559;1275;22542;-72
2023/11/06 11:11:08;;;;;;;0.40;0.20;;;;;;;11.04;57.65;95730.29;108598;1271;22969;-73
2023/11/06 11:13:43;;;;;;;1.00;0.40;;;;;;;11.06;57.64;95739.00;108628;1267;22534;-73
2023/11/06 11:16:39;;;;;;;0.40;0.20;;;;;;;11.10;57.76;95730.02;108602;1267;22608;-73
2023/11/06 11:19:24;;;;;;;0.90;0.50;;;;;;;11.09;57.44;95735.23;108567;1275;23003;-73
2023/11/06 11:22:13;;;;;;;1.00;0.30;;;;;;;11.12;57.69;95731.42;108599;1275;22531;-73
2023/11/06 11:24:55;;;;;;;0.70;0.30;;;;;;;11.15;57.52;95730.50;108598;1267;22536;-73
2023/11/06 11:27:27;;;;;;;11.00;1.00;;;;;;;11.18;57.27;95728.09;108663;1267;22596;-73
2023/11/06 11:30:10;;;;;;;0.70;0.20;;;;;;;11.21;57.28;95731.14;108568;1273;24182;-72
2023/11/06 11:32:49;;;;;;;0.70;0.40;;;;;;;11.32;57.45;95737.98;108706;1275;22544;-73
2023/11/06 11:35:50;;;;;;;1.60;0.70;;;;;;;11.48;57.50;95736.66;108714;1274;22603;-73
2023/11/06 11:38:36;;;;;;;1.60;0.60;;;;;;;11.52;57.26;95738.58;108680;1275;22554;-72
2023/11/06 11:41:14;;;;;;;1.20;0.40;;;;;;;11.71;57.42;95738.42;108717;1272;24379;-73
2023/11/06 11:43:50;;;;;;;1.10;0.70;;;;;;;12.06;57.72;95742.85;108643;1265;144204;-73
2023/11/06 11:47:01;;;;;;;3.00;0.40;;;;;;;12.37;57.52;95750.15;108752;1268;25337;-73
2023/11/06 11:49:41;;;;;;;2.10;1.20;;;;;;;12.62;55.82;95747.23;108673;1275;22576;-73
2023/11/06 11:52:13;;;;;;;0.70;0.30;;;;;;;12.64;55.58;95754.02;108681;1275;24268;-73